Terminal Aerodrome Forecast
Issued by NWS

Home | Current Version | Previous Version | Text Only | Print | Product List | Glossary On
Versions: 1 2 3 4 5 6 7 8 9 10 11 12 13 14 15 16
000
FTUS41 KBTV 061741
TAFSLK
TAF
KSLK 061741Z 0618/0718 06011G20KT P6SM FEW200
     FM062300 07006KT P6SM VCSH BKN080
     FM070100 VRB03KT P6SM BKN040
     FM071200 19008KT P6SM SCT080=

USA.gov is the U.S. government's official web portal to all federal, state and local government web resources and services.